Time;durP1;ratioP1;P1;durP2;ratioP2;P2;SDS_P1;SDS_P2;PMS_P1;PMS_P2;Temp;Humidity;BMP_temperature;BMP_pressure;BME280_temperature;BME280_humidity;BME280_pressure;Samples;Min_cycle;Max_cycle;Signal;HPM_P1;HPM_P2
2024/01/20 19:44:12;;;;;;;29.25;12.32;;;;;;;16.54;100.00;102387.53;4925784;27;63420;-49
2024/01/20 19:46:41;;;;;;;24.00;11.88;;;;;;;16.43;100.00;102380.44;5009263;28;53889;-49
2024/01/20 19:49:08;;;;;;;22.05;11.13;;;;;;;16.50;100.00;102386.78;5023327;28;20060;-47
2024/01/20 19:51:42;;;;;;;22.40;11.07;;;;;;;16.52;100.00;102384.38;5022169;28;20083;-51
2024/01/20 19:54:11;;;;;;;21.83;10.82;;;;;;;16.52;100.00;102384.38;5025782;28;20059;-51
2024/01/20 19:56:45;;;;;;;23.13;10.93;;;;;;;16.55;100.00;102382.72;5026389;28;20258;-49
2024/01/20 19:59:13;;;;;;;20.50;10.05;;;;;;;16.61;100.00;102375.44;5020811;28;20049;-50
2024/01/20 20:01:43;;;;;;;21.98;11.50;;;;;;;16.61;100.00;102381.06;5020593;28;20491;-52
2024/01/20 20:04:15;;;;;;;21.30;11.20;;;;;;;16.62;100.00;102375.03;5023672;28;20141;-50
2024/01/20 20:06:44;;;;;;;23.50;11.35;;;;;;;16.62;100.00;102363.78;5023940;28;20479;-48
2024/01/20 20:09:12;;;;;;;24.55;9.80;;;;;;;16.63;100.00;102368.19;5022935;28;20050;-50
2024/01/20 20:11:42;;;;;;;19.17;9.55;;;;;;;16.64;100.00;102366.97;5022193;28;20092;-48
2024/01/20 20:14:09;;;;;;;20.77;10.15;;;;;;;16.66;100.00;102366.53;5021484;28;20061;-48
2024/01/20 20:16:36;;;;;;;19.77;10.63;;;;;;;16.66;100.00;102361.75;5019289;28;20054;-51
2024/01/20 20:19:03;;;;;;;22.25;10.20;;;;;;;16.66;100.00;102364.53;5023769;28;20511;-48
2024/01/20 20:21:33;;;;;;;20.52;10.13;;;;;;;16.67;100.00;102359.69;5033164;28;20452;-48
2024/01/20 20:24:00;;;;;;;19.65;10.45;;;;;;;16.64;100.00;102350.13;5016829;28;20458;-49
2024/01/20 20:26:29;;;;;;;18.65;9.45;;;;;;;16.64;100.00;102358.53;5018584;28;20054;-48
2024/01/20 20:28:56;;;;;;;18.42;10.00;;;;;;;16.65;100.00;102348.88;5023521;28;20431;-47
2024/01/20 20:31:24;;;;;;;19.17;9.15;;;;;;;16.64;100.00;102350.13;5024850;28;20050;-50
2024/01/20 20:33:51;;;;;;;20.25;10.57;;;;;;;16.64;100.00;102340.91;5026290;28;20049;-47
2024/01/20 20:36:20;;;;;;;20.38;9.55;;;;;;;16.65;100.00;102343.28;5025007;28;20054;-48
2024/01/20 20:38:47;;;;;;;18.60;9.63;;;;;;;16.65;100.00;102343.28;5025079;28;20427;-49
2024/01/20 20:41:13;;;;;;;21.20;10.55;;;;;;;16.66;100.00;102344.88;5027832;28;20042;-49
2024/01/20 20:43:40;;;;;;;19.23;9.25;;;;;;;16.65;100.00;102346.09;5026616;28;20054;-52
2024/01/20 20:46:07;;;;;;;18.52;8.30;;;;;;;16.67;100.00;102352.09;5028023;28;20045;-49
2024/01/20 20:48:34;;;;;;;19.23;9.18;;;;;;;16.66;100.00;102353.31;5016281;28;20077;-49
2024/01/20 20:51:00;;;;;;;19.17;9.38;;;;;;;16.65;100.00;102353.72;5023535;28;20049;-46
2024/01/20 20:53:27;;;;;;;20.25;8.10;;;;;;;16.62;100.00;102344.13;5023219;28;20041;-48
2024/01/20 20:55:53;;;;;;;20.15;9.20;;;;;;;16.62;100.00;102348.94;5012729;28;20453;-49
2024/01/20 20:58:21;;;;;;;16.38;8.70;;;;;;;16.62;100.00;102346.94;5005888;28;20088;-48
2024/01/20 21:00:47;;;;;;;17.83;8.48;;;;;;;16.64;100.00;102335.31;5015218;28;20141;-50
2024/01/20 21:03:14;;;;;;;20.80;8.88;;;;;;;16.65;100.00;102331.25;5004157;28;20045;-52
2024/01/20 21:05:41;;;;;;;18.25;8.60;;;;;;;16.67;100.00;102324.00;5008063;28;20058;-50
2024/01/20 21:08:08;;;;;;;17.48;8.32;;;;;;;16.68;100.00;102313.56;5011462;28;20140;-50
2024/01/20 21:10:35;;;;;;;19.80;8.18;;;;;;;16.67;100.00;102321.19;5011395;28;20056;-50
2024/01/20 21:13:01;;;;;;;17.25;8.73;;;;;;;16.68;100.00;102316.38;5010965;28;20132;-52
2024/01/20 21:15:28;;;;;;;20.90;8.85;;;;;;;16.65;100.00;102303.97;5009458;28;20137;-50
2024/01/20 21:17:55;;;;;;;19.48;7.90;;;;;;;16.64;100.00;102308.00;5010060;28;20483;-51
2024/01/20 21:20:21;;;;;;;18.05;8.35;;;;;;;16.66;100.00;102304.75;5004203;28;20416;-52
2024/01/20 21:22:48;;;;;;;17.27;8.55;;;;;;;16.62;100.00;102295.59;5015230;28;20129;-53
2024/01/20 21:25:16;;;;;;;19.77;8.93;;;;;;;16.63;100.00;102300.00;5007295;28;20540;-51
2024/01/20 21:27:43;;;;;;;16.38;7.45;;;;;;;16.69;100.00;102290.69;5009755;28;20054;-48
2024/01/20 21:30:13;;;;;;;16.75;7.70;;;;;;;16.72;100.00;102289.03;5008096;28;20046;-49
2024/01/20 21:32:40;;;;;;;17.17;7.55;;;;;;;16.72;100.00;102287.03;5011855;28;21318;-48
2024/01/20 21:35:07;;;;;;;16.85;7.40;;;;;;;16.72;100.00;102297.47;5008225;28;20061;-50
2024/01/20 21:37:34;;;;;;;15.63;7.05;;;;;;;16.72;100.00;102289.84;5002373;28;20459;-51
2024/01/20 21:40:00;;;;;;;15.98;7.35;;;;;;;16.74;100.00;102292.19;5014530;28;20056;-46
2024/01/20 21:42:27;;;;;;;19.38;8.13;;;;;;;16.68;100.00;102289.06;5006291;28;20077;-50
2024/01/20 21:44:59;;;;;;;18.45;7.68;;;;;;;16.66;100.00;102287.91;5003770;28;20108;-50
2024/01/20 21:47:26;;;;;;;17.65;7.75;;;;;;;16.67;100.00;102279.06;5006240;28;20181;-49
2024/01/20 21:49:53;;;;;;;17.83;8.18;;;;;;;16.69;100.00;102282.25;5009515;28;20061;-51
2024/01/20 21:52:20;;;;;;;15.07;7.40;;;;;;;16.70;100.00;102281.03;5011115;28;20053;-49
2024/01/20 21:54:46;;;;;;;20.40;8.00;;;;;;;16.70;100.00;102269.00;5010734;28;20054;-48
2024/01/20 21:57:13;;;;;;;16.58;6.82;;;;;;;16.69;100.00;102273.84;5006107;28;20062;-48
2024/01/20 21:59:39;;;;;;;17.48;6.95;;;;;;;16.67;100.00;102270.66;5005092;28;20050;-49
2024/01/20 22:02:06;;;;;;;14.45;7.32;;;;;;;16.67;100.00;102264.22;5005398;28;20454;-49
2024/01/20 22:04:33;;;;;;;15.27;6.50;;;;;;;16.67;100.00;102253.00;4997404;28;20093;-52
2024/01/20 22:06:59;;;;;;;16.85;6.88;;;;;;;16.66;100.00;102255.03;5009024;28;20049;-50
2024/01/20 22:09:26;;;;;;;16.10;7.55;;;;;;;16.67;100.00;102261.41;5011436;28;20500;-54
2024/01/20 22:11:52;;;;;;;17.25;7.15;;;;;;;16.65;100.00;102252.63;5012876;28;20057;-54
2024/01/20 22:14:19;;;;;;;16.15;6.72;;;;;;;16.63;100.00;102244.63;5009936;28;20054;-54
2024/01/20 22:16:45;;;;;;;15.23;7.03;;;;;;;16.64;100.00;102240.59;5008223;28;20085;-52
2024/01/20 22:19:13;;;;;;;17.45;7.45;;;;;;;16.63;100.00;102236.22;5009070;28;20045;-49
2024/01/20 22:21:40;;;;;;;15.70;6.80;;;;;;;16.62;100.00;102231.81;5004874;28;20054;-52
2024/01/20 22:24:08;;;;;;;15.88;7.03;;;;;;;16.62;100.00;102229.00;5008006;28;20052;-51
2024/01/20 22:26:34;;;;;;;15.65;7.30;;;;;;;16.61;100.00;102223.81;5002503;28;20054;-49
2024/01/20 22:29:01;;;;;;;16.85;7.28;;;;;;;16.62;100.00;102217.78;5010254;28;20055;-48
2024/01/20 22:31:44;;;;;;;12.50;6.07;;;;;;;16.64;100.00;102229.38;5011936;28;20579;-50
2024/01/20 22:34:10;;;;;;;15.02;6.43;;;;;;;16.66;100.00;102232.56;5009733;28;20108;-51
2024/01/20 22:36:37;;;;;;;14.65;5.80;;;;;;;16.65;100.00;102236.56;5009678;28;20050;-50
2024/01/20 22:39:04;;;;;;;16.50;6.82;;;;;;;16.65;100.00;102222.53;5010782;28;20045;-51
2024/01/20 22:41:32;;;;;;;16.42;6.20;;;;;;;16.65;100.00;102219.72;5011248;28;20389;-48
2024/01/20 22:43:58;;;;;;;15.32;6.32;;;;;;;16.65;100.00;102227.38;5011066;28;20069;-48
2024/01/20 22:46:25;;;;;;;13.85;6.35;;;;;;;16.67;100.00;102220.09;5010241;28;20096;-48
2024/01/20 22:48:53;;;;;;;14.48;6.15;;;;;;;16.67;100.00;102224.91;5010681;28;20135;-49
2024/01/20 22:51:21;;;;;;;15.45;5.80;;;;;;;16.65;100.00;102210.50;5009542;28;20402;-50
2024/01/20 22:53:48;;;;;;;13.27;5.88;;;;;;;16.66;100.00;102217.72;5007390;28;20076;-48
2024/01/20 22:56:16;;;;;;;15.13;6.60;;;;;;;16.65;100.00;102207.72;5000777;28;20459;-50
2024/01/20 22:58:46;;;;;;;14.43;5.82;;;;;;;16.65;100.00;102210.50;5005863;28;20493;-50
2024/01/20 23:01:16;;;;;;;15.95;5.95;;;;;;;16.64;100.00;102220.94;5008072;28;20046;-48
2024/01/20 23:03:43;;;;;;;14.82;6.60;;;;;;;16.66;100.00;102221.31;5003305;28;20138;-50
2024/01/20 23:06:10;;;;;;;15.18;6.15;;;;;;;16.67;100.00;102222.09;5004599;28;20054;-52
2024/01/20 23:08:38;;;;;;;14.43;5.88;;;;;;;16.66;100.00;102215.72;5009452;28;20595;-51
2024/01/20 23:11:06;;;;;;;14.23;5.72;;;;;;;16.66;100.00;102209.28;5007885;28;20077;-51
2024/01/20 23:13:32;;;;;;;11.55;5.43;;;;;;;16.66;100.00;102201.66;5003105;28;20072;-48
2024/01/20 23:15:59;;;;;;;13.25;5.95;;;;;;;16.66;100.00;102210.09;5008668;28;20049;-50
2024/01/20 23:18:25;;;;;;;15.52;6.07;;;;;;;16.65;100.00;102202.88;5003862;28;20081;-52
2024/01/20 23:20:52;;;;;;;11.75;5.13;;;;;;;16.66;100.00;102204.47;5010542;28;20394;-51
2024/01/20 23:23:19;;;;;;;12.25;5.70;;;;;;;16.63;100.00;102208.13;5006218;28;20831;-49
2024/01/20 23:25:45;;;;;;;12.98;5.40;;;;;;;16.66;100.00;102210.09;5008419;28;20509;-47
2024/01/20 23:28:12;;;;;;;12.27;5.70;;;;;;;16.67;100.00;102208.88;5006201;28;20050;-47
2024/01/20 23:30:40;;;;;;;13.85;5.32;;;;;;;16.69;100.00;102191.59;5005813;28;20054;-53
2024/01/20 23:33:07;;;;;;;10.82;5.38;;;;;;;16.67;100.00;102192.00;5006484;28;20053;-51
2024/01/20 23:35:34;;;;;;;10.57;5.43;;;;;;;16.63;100.00;102182.84;5006472;28;20136;-49
2024/01/20 23:38:01;;;;;;;12.27;5.35;;;;;;;16.66;100.00;102178.41;5006247;28;20057;-50
2024/01/20 23:40:27;;;;;;;12.90;4.68;;;;;;;16.67;100.00;102168.75;5007451;28;20069;-53
2024/01/20 23:42:54;;;;;;;11.15;4.70;;;;;;;16.69;100.00;102157.91;5011085;28;20081;-48
2024/01/20 23:45:20;;;;;;;11.40;5.55;;;;;;;16.70;100.00;102159.47;5009462;28;20423;-49
2024/01/20 23:47:47;;;;;;;10.57;4.75;;;;;;;16.70;100.00;102159.47;5008507;28;20416;-47
2024/01/20 23:50:13;;;;;;;12.70;5.22;;;;;;;16.71;100.00;102155.47;5010643;28;20693;-53
2024/01/20 23:52:40;;;;;;;10.32;4.75;;;;;;;16.68;100.00;102151.47;5006813;28;20054;-49
2024/01/20 23:55:07;;;;;;;13.00;5.00;;;;;;;16.67;100.00;102152.69;5006685;28;20582;-50
2024/01/20 23:57:38;;;;;;;9.23;4.55;;;;;;;16.66;100.00;102139.09;5005595;28;20601;-50
